EBLG

Liège

Airport
ICAO code
EBLG
Summary
ICAO Region
EUR
ICAO Territory
Location

Liège,

Elevation
659 ft
Coordinates
50° 38' 15" N , 5° 26' 36" E
KCC
Metar
Observation
EBLG 062320Z 26008KT 5000 BR FEW006 BKN028 03/02 Q1019 TEMPO 4000 -SHRA
Station
Bierset
Date/Time
2022-12-06 23:20:00
Wind direction
260°
Wind speed
08 kts
Lowest cloud amount
few clouds
Temperature
3°C
Dew point
2°C
Humidity
93%
QNH
1019 hPa
Weather condition
n/a

Description

Liège Airport, also called Liège-Bierset, is a cargo airport in Belgium.

Climatology

Temperate Marine climate/Oceanic climate (Köppen climate classification Cfb) - Moderately cool summer and comparatively warm winter.

Runways

Designator Length Width Surface Rops
05L/23R 2340 45 ASP Yes/Yes
05R/23L 3287 45 ASP Yes/Yes

Airport map

Aerial View

SKYbrary Partners:

Safety knowledge contributed by: